Terminal Aerodrome Forecast
Issued by NWS

Home | Current Version | Previous Version | Text Only | Print | Product List | Glossary On
Versions: 1 2 3 4 5 6 7 8 9 10 11 12 13 14 15 16 17 18 19 20 21 22 23 24 25 26 27 28 29 30 31
000
FTUS45 KSLC 211743
TAFOGD
TAF
KOGD 211743Z 2118/2218 19006KT 1/2SM -SN FZFG VV004
     FM212000 22008KT 2SM -SN BR BKN008 OVC010
     FM212300 27007KT 6SM BR VCSH BKN010 OVC030
     FM220300 17006KT P6SM SCT040 BKN080
     FM221200 17010KT P6SM SCT020 BKN050=

USA.gov is the U.S. government's official web portal to all federal, state and local government web resources and services.